首页
METAR-TAF:

METAR-TAF

机场 :

阿卡胡特拉, 萨尔瓦多

纬度: 13-34N, 经度: 089-50W, 海拔: 15米

当前天气观测

该预报发布于49分钟前的03:50 UTC
风速5节,风向西
温度 29°C
湿度 79%
气压 1011 hPa
能见度10公里或以上
少量云层高于3700英尺

METAR: MSAC 210350Z 26005KT 9999 FEW037 29/25 Q1010 A2985

时间: 22:39 (04:39 UTC)


TAF: 丢失

超过4000个机场的气象观测和天气预报(METAR&TAF报告)。

可查询的气象台以黄色和红色小点在地图上表示。

将鼠标移到小点上方,可查看气象台名称。

然后点击查看天气观测和预报。

如需切换地图:点击带黑十字的绿色按钮放大地图;点击带横线的绿色按钮缩小地图;或者点击绿色箭头查看邻近地区的地图。


METAR-TAF: